CEJ2 weather

CLOSED Andrew Airport
Andrew, Alberta, Canada

Public forecast

Using degrees Celsius for public forecast. Weather courtesy of forecast.io.

Closest aviation weather report (METAR) to Andrew Airport

Closest report is Edmonton (CFB Namao) Heliport, 41.2 nm (76.3 km) WSW. Retrieved 2019/12/13 04:19 UTC (33 minutes ago):

CYED 130419Z AUTO 02006KT 6SM SCT010 SCT080 M17/M18 A2994

Closest aviation forecast (TAF) to Andrew Airport

Closest forecast is Edmonton (CFB Namao) Heliport, 41.2 nm (76.3 km) WSW. Retrieved 2019-12-13 00:33 UTC (4 hours ago):

TAF CYED 122330Z 1300/1312 05005KT P6SM SCT012 OVC025 TEMPO 1300/1312 2SM -SN OVC012 RMK FCST BASED ON AUTO OBS NXT FCST BY 130600Z